Lewiston, ID

6:13 AM PDT on August 20, 2014 (GMT -0700)
Walla Walla Regional | Change Station
CLOSE
Current Station
Airport
Location: Walla Walla,
Elevation: 1204 ft
Nearby Weather Stations

Elev 1204 ft 46.09 °N, 118.29 °W | Updated 20 minutes ago

Partly Cloudy
Partly Cloudy
68 °F
Feels Like 68 °F
N
14
Wind Variable Wind from South

Today
High -- | Low -- °F
--% Chance of Precip.
Yesterday
High -- | Low -- °F
Precip. -- in
5:53 AM 7:48 PM
Waning Crescent, 22% visible
Pressure 29.80 in
Visibility 10.0 miles
Clouds Few 8000 ft
Dew Point 54 °F
Humidity 61%
Rainfall 0.00 in
Snow Depth Not available.
UV 0 out of 12
Pollen 7.40 out of 12
Air Quality Not available.
Flu Activity Not available.
METAR KALW 201253Z 19012KT 10SM FEW080 20/12 A2982 RMK AO2 SLP089 T02000122

More Conditions Fewer Conditions

Pressure 29.80 in
Visibility 10.0 miles
Clouds Few 8000 ft
Dew Point 54 °F
Humidity 61%
Rainfall 0.00 in
Snow Depth Not available.
UV 0 out of 12
Pollen 7.40 out of 12
Air Quality Not available.
Flu Activity Not available.
METAR KALW 201253Z 19012KT 10SM FEW080 20/12 A2982 RMK AO2 SLP089 T02000122

More Conditions Fewer Conditions

10-Day Weather Forecast

Almanac

Astronomy

Aug. 20, 2014 Rise Set
Actual Time 5:53 AM PDT 7:48 PM PDT
Civil Twilight 5:20 AM PDT 8:20 PM PDT
Nautical Twilight 4:40 AM PDT 9:00 PM PDT
Astronomical Twilight 3:57 AM PDT 9:43 PM PDT
Moon 1:30 AM PDT 4:43 PM PDT
Length of Visible Light 15h 00m
Length of Day
13h 55m
Tomorrow will be 3m 2s shorter.
Waning Crescent, 22% of the Moon is Illuminated
Today
Waning Crescent
Aug 25
New
Sep 2
First Quarter
Sep 8
Full
Sep 15
Last Quarter

Today's Extremes

State Highs State Lows

Community

WunderPhotos

Upload Photos

1,745,623 photos uploaded!

Nearby

Snow Depth

Station Depth Elevation
Moscow Mountain 0 in 4700 ft
Sherwin 0 in 3200 ft
Mica Creek 0 in 4750 ft
Lost Lake 0 in 6110 ft
Crater Meadows 0 in 5960 ft

Earthquake Activity

City Distance Mag. Time & Date
No recent earthquake activity has been reported nearby.
Minimum magnitude displayed is 2.5.

Coastal Water Temperatures

Place Temperature
No Stations Reporting

Nearby Weather Stations